sensor_id;sensor_type;location;lat;lon;timestamp;pressure;altitude;pressure_sealevel;temperature;humidity
27144;BME280;14672;50.250;8.312;2023-03-04T00:02:11;99609.09;;;2.84;56.19
27144;BME280;14672;50.250;8.312;2023-03-04T00:04:37;99619.53;;;2.84;56.64
27144;BME280;14672;50.250;8.312;2023-03-04T00:07:02;99611.19;;;2.95;56.23
27144;BME280;14672;50.250;8.312;2023-03-04T00:09:28;99622.81;;;2.93;56.03
27144;BME280;14672;50.250;8.312;2023-03-04T00:11:54;99621.50;;;2.80;56.50
27144;BME280;14672;50.250;8.312;2023-03-04T00:14:20;99620.75;;;2.87;55.96
27144;BME280;14672;50.250;8.312;2023-03-04T00:16:46;99624.75;;;2.86;56.35
27144;BME280;14672;50.250;8.312;2023-03-04T00:19:13;99621.38;;;2.66;57.11
27144;BME280;14672;50.250;8.312;2023-03-04T00:21:39;99620.69;;;2.79;56.21
27144;BME280;14672;50.250;8.312;2023-03-04T00:24:06;99621.81;;;2.71;55.84
27144;BME280;14672;50.250;8.312;2023-03-04T00:26:32;99616.50;;;2.59;57.33
27144;BME280;14672;50.250;8.312;2023-03-04T00:28:57;99618.59;;;2.69;56.89
27144;BME280;14672;50.250;8.312;2023-03-04T00:31:23;99620.28;;;2.77;57.02
27144;BME280;14672;50.250;8.312;2023-03-04T00:33:49;99609.78;;;2.71;56.62
27144;BME280;14672;50.250;8.312;2023-03-04T00:36:15;99613.03;;;2.73;57.15
27144;BME280;14672;50.250;8.312;2023-03-04T00:38:40;99612.59;;;2.71;57.44
27144;BME280;14672;50.250;8.312;2023-03-04T00:41:06;99613.41;;;2.71;57.91
27144;BME280;14672;50.250;8.312;2023-03-04T00:43:32;99605.41;;;2.70;58.26
27144;BME280;14672;50.250;8.312;2023-03-04T00:45:58;99608.19;;;2.70;57.81
27144;BME280;14672;50.250;8.312;2023-03-04T00:48:24;99611.06;;;2.77;58.56
27144;BME280;14672;50.250;8.312;2023-03-04T00:50:50;99614.22;;;2.75;57.95
27144;BME280;14672;50.250;8.312;2023-03-04T00:53:18;99608.75;;;2.90;58.13
27144;BME280;14672;50.250;8.312;2023-03-04T00:55:44;99609.47;;;2.79;58.21
27144;BME280;14672;50.250;8.312;2023-03-04T00:58:10;99605.13;;;2.89;57.92
27144;BME280;14672;50.250;8.312;2023-03-04T01:00:35;99604.78;;;2.94;58.42
27144;BME280;14672;50.250;8.312;2023-03-04T01:03:01;99608.84;;;3.04;58.38
27144;BME280;14672;50.250;8.312;2023-03-04T01:05:27;99595.63;;;3.04;58.36
27144;BME280;14672;50.250;8.312;2023-03-04T01:07:53;99599.22;;;3.05;58.97
27144;BME280;14672;50.250;8.312;2023-03-04T01:10:19;99603.28;;;3.11;58.53
27144;BME280;14672;50.250;8.312;2023-03-04T01:12:45;99591.69;;;3.16;59.66
27144;BME280;14672;50.250;8.312;2023-03-04T01:15:12;99584.91;;;3.20;59.33
27144;BME280;14672;50.250;8.312;2023-03-04T01:17:38;99585.34;;;3.29;59.30
27144;BME280;14672;50.250;8.312;2023-03-04T01:20:06;99585.38;;;3.37;59.04
27144;BME280;14672;50.250;8.312;2023-03-04T01:22:32;99581.75;;;3.33;59.73
27144;BME280;14672;50.250;8.312;2023-03-04T01:24:58;99577.81;;;3.44;59.50
27144;BME280;14672;50.250;8.312;2023-03-04T01:27:24;99586.66;;;3.46;59.38
27144;BME280;14672;50.250;8.312;2023-03-04T01:29:49;99574.25;;;3.54;59.40
27144;BME280;14672;50.250;8.312;2023-03-04T01:32:15;99579.88;;;3.58;59.15
27144;BME280;14672;50.250;8.312;2023-03-04T01:34:41;99569.84;;;3.60;59.75
27144;BME280;14672;50.250;8.312;2023-03-04T01:37:07;99565.06;;;3.68;59.67
27144;BME280;14672;50.250;8.312;2023-03-04T01:39:34;99565.03;;;3.61;59.86
27144;BME280;14672;50.250;8.312;2023-03-04T01:42:00;99552.63;;;3.65;59.55
27144;BME280;14672;50.250;8.312;2023-03-04T01:44:26;99550.63;;;3.73;59.65
27144;BME280;14672;50.250;8.312;2023-03-04T01:46:53;99550.63;;;3.73;59.35
27144;BME280;14672;50.250;8.312;2023-03-04T01:49:20;99545.84;;;3.88;59.36
27144;BME280;14672;50.250;8.312;2023-03-04T01:51:52;99545.84;;;3.88;60.12
27144;BME280;14672;50.250;8.312;2023-03-04T01:54:21;99541.84;;;3.92;59.75
27144;BME280;14672;50.250;8.312;2023-03-04T01:56:49;99540.22;;;3.91;60.15
27144;BME280;14672;50.250;8.312;2023-03-04T02:01:53;99536.25;;;4.03;60.43
27144;BME280;14672;50.250;8.312;2023-03-04T02:04:24;99525.00;;;4.03;60.21
27144;BME280;14672;50.250;8.312;2023-03-04T02:06:51;99533.03;;;4.01;59.73
27144;BME280;14672;50.250;8.312;2023-03-04T02:09:18;99529.84;;;4.06;59.82
27144;BME280;14672;50.250;8.312;2023-03-04T02:11:45;99525.00;;;4.06;59.69
27144;BME280;14672;50.250;8.312;2023-03-04T02:14:12;99517.78;;;4.12;59.83
27144;BME280;14672;50.250;8.312;2023-03-04T02:16:39;99521.81;;;4.15;60.13
27144;BME280;14672;50.250;8.312;2023-03-04T02:22:06;99507.34;;;4.23;60.17
27144;BME280;14672;50.250;8.312;2023-03-04T02:24:42;99506.97;;;4.25;59.93
27144;BME280;14672;50.250;8.312;2023-03-04T02:27:10;99509.34;;;4.23;60.29
27144;BME280;14672;50.250;8.312;2023-03-04T02:29:36;99516.59;;;4.28;59.88
27144;BME280;14672;50.250;8.312;2023-03-04T02:32:02;99504.53;;;4.23;60.33
27144;BME280;14672;50.250;8.312;2023-03-04T02:34:32;99499.72;;;4.35;59.90
27144;BME280;14672;50.250;8.312;2023-03-04T02:36:59;99493.69;;;4.36;59.56
27144;BME280;14672;50.250;8.312;2023-03-04T02:39:39;99504.56;;;4.38;60.07
27144;BME280;14672;50.250;8.312;2023-03-04T02:42:06;99501.72;;;4.34;59.92
27144;BME280;14672;50.250;8.312;2023-03-04T02:44:38;99496.13;;;4.41;59.96
27144;BME280;14672;50.250;8.312;2023-03-04T02:47:08;99494.47;;;4.51;59.93
27144;BME280;14672;50.250;8.312;2023-03-04T02:49:36;99497.72;;;4.46;59.99
27144;BME280;14672;50.250;8.312;2023-03-04T02:52:06;99500.13;;;4.47;59.50
27144;BME280;14672;50.250;8.312;2023-03-04T02:54:33;99495.28;;;4.51;59.42
27144;BME280;14672;50.250;8.312;2023-03-04T02:57:02;99496.91;;;4.49;59.51
27144;BME280;14672;50.250;8.312;2023-03-04T02:59:28;99491.28;;;4.56;59.31
27144;BME280;14672;50.250;8.312;2023-03-04T03:01:55;99496.09;;;4.52;59.42
27144;BME280;14672;50.250;8.312;2023-03-04T03:04:22;99493.69;;;4.57;59.52
27144;BME280;14672;50.250;8.312;2023-03-04T03:06:48;99503.72;;;4.62;59.15
27144;BME280;14672;50.250;8.312;2023-03-04T03:09:14;99494.47;;;4.58;59.48
27144;BME280;14672;50.250;8.312;2023-03-04T03:11:40;99492.47;;;4.65;59.49
27144;BME280;14672;50.250;8.312;2023-03-04T03:14:06;99493.69;;;4.64;59.60
27144;BME280;14672;50.250;8.312;2023-03-04T03:16:33;99494.88;;;4.67;59.56
27144;BME280;14672;50.250;8.312;2023-03-04T03:18:59;99488.06;;;4.64;59.91
27144;BME280;14672;50.250;8.312;2023-03-04T03:21:25;99487.22;;;4.74;59.41
27144;BME280;14672;50.250;8.312;2023-03-04T03:23:51;99484.44;;;4.67;59.64
27144;BME280;14672;50.250;8.312;2023-03-04T03:26:18;99491.25;;;4.73;59.43
27144;BME280;14672;50.250;8.312;2023-03-04T03:28:44;99484.03;;;4.72;59.87
27144;BME280;14672;50.250;8.312;2023-03-04T03:31:10;99474.34;;;4.84;60.13
27144;BME280;14672;50.250;8.312;2023-03-04T03:33:36;99486.41;;;4.85;60.06
27144;BME280;14672;50.250;8.312;2023-03-04T03:36:03;99480.34;;;4.90;59.86
27144;BME280;14672;50.250;8.312;2023-03-04T03:38:29;99472.31;;;4.88;59.66
27144;BME280;14672;50.250;8.312;2023-03-04T03:40:54;99475.53;;;4.90;59.81
27144;BME280;14672;50.250;8.312;2023-03-04T03:43:20;99479.13;;;4.94;59.82
27144;BME280;14672;50.250;8.312;2023-03-04T03:45:46;99475.13;;;4.92;59.61
27144;BME280;14672;50.250;8.312;2023-03-04T03:48:12;99475.13;;;4.92;59.83
27144;BME280;14672;50.250;8.312;2023-03-04T03:50:37;99470.69;;;4.94;59.92
27144;BME280;14672;50.250;8.312;2023-03-04T03:53:03;99471.50;;;4.95;60.07
27144;BME280;14672;50.250;8.312;2023-03-04T03:55:29;99467.06;;;4.90;60.42
27144;BME280;14672;50.250;8.312;2023-03-04T03:57:55;99473.50;;;4.91;60.23
27144;BME280;14672;50.250;8.312;2023-03-04T04:00:21;99467.06;;;4.97;60.05
27144;BME280;14672;50.250;8.312;2023-03-04T04:02:47;99461.84;;;4.96;60.03
27144;BME280;14672;50.250;8.312;2023-03-04T04:05:13;99466.28;;;4.97;60.03
27144;BME280;14672;50.250;8.312;2023-03-04T04:07:41;99463.84;;;4.99;59.98
27144;BME280;14672;50.250;8.312;2023-03-04T04:10:07;99460.19;;;5.02;60.25
27144;BME280;14672;50.250;8.312;2023-03-04T04:12:34;99463.81;;;5.06;60.05
27144;BME280;14672;50.250;8.312;2023-03-04T04:15:00;99461.44;;;5.01;60.09
27144;BME280;14672;50.250;8.312;2023-03-04T04:17:26;99469.84;;;5.08;60.30
27144;BME280;14672;50.250;8.312;2023-03-04T04:19:52;99462.59;;;5.07;60.57
27144;BME280;14672;50.250;8.312;2023-03-04T04:22:19;99470.63;;;5.12;60.38
27144;BME280;14672;50.250;8.312;2023-03-04T04:24:46;99466.19;;;5.14;59.97
27144;BME280;14672;50.250;8.312;2023-03-04T04:27:12;99464.59;;;5.10;60.38
27144;BME280;14672;50.250;8.312;2023-03-04T04:29:38;99462.19;;;5.15;60.56
27144;BME280;14672;50.250;8.312;2023-03-04T04:32:04;99461.78;;;5.17;60.40
27144;BME280;14672;50.250;8.312;2023-03-04T04:34:30;99455.28;;;5.27;60.78
27144;BME280;14672;50.250;8.312;2023-03-04T04:36:56;99459.72;;;5.28;60.60
27144;BME280;14672;50.250;8.312;2023-03-04T04:39:21;99452.50;;;5.24;60.50
27144;BME280;14672;50.250;8.312;2023-03-04T04:41:48;99465.34;;;5.28;60.62
27144;BME280;14672;50.250;8.312;2023-03-04T04:44:14;99452.06;;;5.29;60.84
27144;BME280;14672;50.250;8.312;2023-03-04T04:46:41;99456.06;;;5.31;60.20
27144;BME280;14672;50.250;8.312;2023-03-04T04:49:07;99450.41;;;5.38;60.37
27144;BME280;14672;50.250;8.312;2023-03-04T04:51:34;99445.97;;;5.41;59.83
27144;BME280;14672;50.250;8.312;2023-03-04T04:54:01;99454.03;;;5.35;60.31
27144;BME280;14672;50.250;8.312;2023-03-04T04:56:28;99444.38;;;5.40;60.22
27144;BME280;14672;50.250;8.312;2023-03-04T04:58:57;99436.72;;;5.40;60.36
27144;BME280;14672;50.250;8.312;2023-03-04T05:01:24;99447.16;;;5.43;60.28
27144;BME280;14672;50.250;8.312;2023-03-04T05:03:50;99442.72;;;5.42;60.41
27144;BME280;14672;50.250;8.312;2023-03-04T05:06:18;99433.88;;;5.44;60.52
27144;BME280;14672;50.250;8.312;2023-03-04T05:08:46;99441.94;;;5.42;60.21
27144;BME280;14672;50.250;8.312;2023-03-04T05:11:12;99445.16;;;5.44;59.90
27144;BME280;14672;50.250;8.312;2023-03-04T05:13:38;99457.16;;;5.55;60.00
27144;BME280;14672;50.250;8.312;2023-03-04T05:16:04;99445.53;;;5.49;59.94
27144;BME280;14672;50.250;8.312;2023-03-04T05:18:30;99447.56;;;5.42;60.43
27144;BME280;14672;50.250;8.312;2023-03-04T05:21:00;99446.34;;;5.46;60.65
27144;BME280;14672;50.250;8.312;2023-03-04T05:23:32;99451.53;;;5.55;60.08
27144;BME280;14672;50.250;8.312;2023-03-04T05:25:59;99443.47;;;5.53;60.31
27144;BME280;14672;50.250;8.312;2023-03-04T05:28:25;99451.94;;;5.53;60.32
27144;BME280;14672;50.250;8.312;2023-03-04T05:30:50;99450.72;;;5.54;60.29
27144;BME280;14672;50.250;8.312;2023-03-04T05:33:17;99447.06;;;5.57;60.62
27144;BME280;14672;50.250;8.312;2023-03-04T05:35:44;99453.13;;;5.59;60.19
27144;BME280;14672;50.250;8.312;2023-03-04T05:38:14;99444.69;;;5.56;60.18
27144;BME280;14672;50.250;8.312;2023-03-04T05:40:41;99450.69;;;5.61;60.22
27144;BME280;14672;50.250;8.312;2023-03-04T05:43:08;99451.91;;;5.60;60.39
27144;BME280;14672;50.250;8.312;2023-03-04T05:45:34;99441.06;;;5.55;60.60
27144;BME280;14672;50.250;8.312;2023-03-04T05:47:59;99447.06;;;5.61;60.33
27144;BME280;14672;50.250;8.312;2023-03-04T05:50:25;99440.59;;;5.67;59.99
27144;BME280;14672;50.250;8.312;2023-03-04T05:52:51;99444.22;;;5.68;60.18
27144;BME280;14672;50.250;8.312;2023-03-04T05:55:18;99445.81;;;5.69;59.94
27144;BME280;14672;50.250;8.312;2023-03-04T05:57:44;99449.03;;;5.67;60.14
27144;BME280;14672;50.250;8.312;2023-03-04T06:00:12;99451.47;;;5.69;60.21
27144;BME280;14672;50.250;8.312;2023-03-04T06:02:39;99449.03;;;5.67;60.42
27144;BME280;14672;50.250;8.312;2023-03-04T06:05:07;99450.19;;;5.74;59.90
27144;BME280;14672;50.250;8.312;2023-03-04T06:07:33;99452.63;;;5.75;59.80
27144;BME280;14672;50.250;8.312;2023-03-04T06:09:58;99460.66;;;5.77;60.13
27144;BME280;14672;50.250;8.312;2023-03-04T06:12:24;99455.44;;;5.75;60.02
27144;BME280;14672;50.250;8.312;2023-03-04T06:14:50;99472.31;;;5.79;60.04
27144;BME280;14672;50.250;8.312;2023-03-04T06:17:16;99466.69;;;5.79;59.87
27144;BME280;14672;50.250;8.312;2023-03-04T06:19:42;99466.63;;;5.86;59.77
27144;BME280;14672;50.250;8.312;2023-03-04T06:22:09;99469.44;;;5.86;60.07
27144;BME280;14672;50.250;8.312;2023-03-04T06:24:35;99474.69;;;5.91;60.07
27144;BME280;14672;50.250;8.312;2023-03-04T06:27:01;99473.84;;;5.97;59.66
27144;BME280;14672;50.250;8.312;2023-03-04T06:29:27;99472.63;;;5.98;59.33
27144;BME280;14672;50.250;8.312;2023-03-04T06:31:53;99483.94;;;5.95;59.74
27144;BME280;14672;50.250;8.312;2023-03-04T06:34:20;99479.91;;;5.96;60.04
27144;BME280;14672;50.250;8.312;2023-03-04T06:36:46;99481.91;;;5.99;59.78
27144;BME280;14672;50.250;8.312;2023-03-04T06:39:11;99478.66;;;6.04;59.60
27144;BME280;14672;50.250;8.312;2023-03-04T06:41:38;99481.91;;;5.99;59.70
27144;BME280;14672;50.250;8.312;2023-03-04T06:44:04;99485.50;;;6.03;60.10
27144;BME280;14672;50.250;8.312;2023-03-04T06:46:32;99485.53;;;5.99;60.00
27144;BME280;14672;50.250;8.312;2023-03-04T06:48:58;99493.13;;;6.06;59.63
27144;BME280;14672;50.250;8.312;2023-03-04T06:51:23;99495.13;;;6.09;59.53
27144;BME280;14672;50.250;8.312;2023-03-04T06:53:49;99493.53;;;6.08;59.52
27144;BME280;14672;50.250;8.312;2023-03-04T06:56:15;99495.09;;;6.12;59.51
27144;BME280;14672;50.250;8.312;2023-03-04T06:58:43;99497.88;;;6.20;59.40
27144;BME280;14672;50.250;8.312;2023-03-04T07:01:27;99503.91;;;6.18;59.56
27144;BME280;14672;50.250;8.312;2023-03-04T07:03:54;99496.25;;;6.19;59.79
27144;BME280;14672;50.250;8.312;2023-03-04T07:06:26;99501.09;;;6.18;59.87
27144;BME280;14672;50.250;8.312;2023-03-04T07:08:52;99500.28;;;6.18;60.09
27144;BME280;14672;50.250;8.312;2023-03-04T07:11:19;99500.69;;;6.20;59.63
27144;BME280;14672;50.250;8.312;2023-03-04T07:13:45;99505.50;;;6.23;59.80
27144;BME280;14672;50.250;8.312;2023-03-04T07:16:16;99507.09;;;6.27;59.96
27144;BME280;14672;50.250;8.312;2023-03-04T07:18:43;99508.22;;;6.33;59.45
27144;BME280;14672;50.250;8.312;2023-03-04T07:21:10;99512.28;;;6.32;59.69
27144;BME280;14672;50.250;8.312;2023-03-04T07:23:36;99513.47;;;6.35;59.49
27144;BME280;14672;50.250;8.312;2023-03-04T07:26:03;99501.78;;;6.36;59.33
27144;BME280;14672;50.250;8.312;2023-03-04T07:28:29;99513.81;;;6.44;59.04
27144;BME280;14672;50.250;8.312;2023-03-04T07:30:55;99520.25;;;6.44;58.89
27144;BME280;14672;50.250;8.312;2023-03-04T07:33:21;99526.28;;;6.46;59.33
27144;BME280;14672;50.250;8.312;2023-03-04T07:35:47;99516.16;;;6.52;59.49
27144;BME280;14672;50.250;8.312;2023-03-04T07:38:13;99513.75;;;6.51;59.05
27144;BME280;14672;50.250;8.312;2023-03-04T07:40:39;99520.97;;;6.55;58.92
27144;BME280;14672;50.250;8.312;2023-03-04T07:43:04;99527.81;;;6.54;58.84
27144;BME280;14672;50.250;8.312;2023-03-04T07:45:30;99518.56;;;6.54;59.10
27144;BME280;14672;50.250;8.312;2023-03-04T07:47:59;99511.63;;;6.62;58.94
27144;BME280;14672;50.250;8.312;2023-03-04T07:50:25;99512.84;;;6.65;59.02
27144;BME280;14672;50.250;8.312;2023-03-04T07:52:51;99515.25;;;6.63;58.87
27144;BME280;14672;50.250;8.312;2023-03-04T07:55:17;99511.22;;;6.64;58.72
27144;BME280;14672;50.250;8.312;2023-03-04T07:57:46;99518.03;;;6.66;58.88
27144;BME280;14672;50.250;8.312;2023-03-04T08:00:14;99516.00;;;6.70;58.80
27144;BME280;14672;50.250;8.312;2023-03-04T08:02:41;99524.91;;;6.69;58.71
27144;BME280;14672;50.250;8.312;2023-03-04T08:05:07;99521.59;;;6.74;58.86
27144;BME280;14672;50.250;8.312;2023-03-04T08:07:34;99517.56;;;6.75;58.85
27144;BME280;14672;50.250;8.312;2023-03-04T08:09:59;99523.63;;;6.77;58.55
27144;BME280;14672;50.250;8.312;2023-03-04T08:12:26;99524.78;;;6.79;58.73
27144;BME280;14672;50.250;8.312;2023-03-04T08:14:52;99507.41;;;6.81;58.91
27144;BME280;14672;50.250;8.312;2023-03-04T08:17:18;99525.13;;;6.85;58.93
27144;BME280;14672;50.250;8.312;2023-03-04T08:19:44;99523.06;;;6.92;58.69
27144;BME280;14672;50.250;8.312;2023-03-04T08:22:10;99531.91;;;6.94;59.04
27144;BME280;14672;50.250;8.312;2023-03-04T08:24:36;99529.44;;;7.00;58.78
27144;BME280;14672;50.250;8.312;2023-03-04T08:27:02;99526.13;;;7.05;58.67
27144;BME280;14672;50.250;8.312;2023-03-04T08:29:28;99528.16;;;7.08;58.44
27144;BME280;14672;50.250;8.312;2023-03-04T08:31:55;99527.72;;;7.09;58.42
27144;BME280;14672;50.250;8.312;2023-03-04T08:34:24;99531.31;;;7.14;58.46
27144;BME280;14672;50.250;8.312;2023-03-04T08:36:51;99537.75;;;7.14;58.61
27144;BME280;14672;50.250;8.312;2023-03-04T08:39:17;99534.03;;;7.24;58.21
27144;BME280;14672;50.250;8.312;2023-03-04T08:41:45;99538.84;;;7.27;58.42
27144;BME280;14672;50.250;8.312;2023-03-04T08:44:12;99535.56;;;7.32;58.21
27144;BME280;14672;50.250;8.312;2023-03-04T08:46:40;99542.38;;;7.35;57.98
27144;BME280;14672;50.250;8.312;2023-03-04T08:49:07;99532.66;;;7.39;57.72
27144;BME280;14672;50.250;8.312;2023-03-04T08:51:35;99534.72;;;7.35;58.37
27144;BME280;14672;50.250;8.312;2023-03-04T08:54:04;99538.66;;;7.41;57.91
27144;BME280;14672;50.250;8.312;2023-03-04T08:56:30;99544.22;;;7.48;57.83
27144;BME280;14672;50.250;8.312;2023-03-04T08:58:56;99536.59;;;7.45;57.87
27144;BME280;14672;50.250;8.312;2023-03-04T09:01:21;99537.00;;;7.47;57.65
27144;BME280;14672;50.250;8.312;2023-03-04T09:03:47;99535.72;;;7.52;57.61
27144;BME280;14672;50.250;8.312;2023-03-04T09:06:16;99534.06;;;7.54;57.59
27144;BME280;14672;50.250;8.312;2023-03-04T09:08:43;99536.44;;;7.60;57.42
27144;BME280;14672;50.250;8.312;2023-03-04T09:11:09;99532.00;;;7.59;57.35
27144;BME280;14672;50.250;8.312;2023-03-04T09:13:35;99532.00;;;7.59;57.28
27144;BME280;14672;50.250;8.312;2023-03-04T09:16:08;99539.19;;;7.67;57.14
27144;BME280;14672;50.250;8.312;2023-03-04T09:18:34;99528.66;;;7.67;57.25
27144;BME280;14672;50.250;8.312;2023-03-04T09:21:00;99539.94;;;7.71;57.34
27144;BME280;14672;50.250;8.312;2023-03-04T09:23:25;99527.78;;;7.74;57.48
27144;BME280;14672;50.250;8.312;2023-03-04T09:25:51;99525.59;;;7.85;56.85
27144;BME280;14672;50.250;8.312;2023-03-04T09:28:18;99530.44;;;7.84;56.69
27144;BME280;14672;50.250;8.312;2023-03-04T09:30:44;99528.34;;;7.92;56.90
27144;BME280;14672;50.250;8.312;2023-03-04T09:33:11;99527.03;;;8.00;56.82
27144;BME280;14672;50.250;8.312;2023-03-04T09:35:37;99524.16;;;8.03;56.07
27144;BME280;14672;50.250;8.312;2023-03-04T09:38:03;99525.69;;;8.08;56.31
27144;BME280;14672;50.250;8.312;2023-03-04T09:40:38;99526.06;;;8.10;55.93
27144;BME280;14672;50.250;8.312;2023-03-04T09:43:18;99530.50;;;8.11;55.85
27144;BME280;14672;50.250;8.312;2023-03-04T09:45:56;99526.00;;;8.14;55.80
27144;BME280;14672;50.250;8.312;2023-03-04T09:48:27;99535.75;;;8.09;55.38
27144;BME280;14672;50.250;8.312;2023-03-04T09:53:53;99514.38;;;8.08;55.21
27144;BME280;14672;50.250;8.312;2023-03-04T09:56:25;99520.63;;;8.23;54.94
27144;BME280;14672;50.250;8.312;2023-03-04T09:59:29;99525.47;;;8.22;55.29
27144;BME280;14672;50.250;8.312;2023-03-04T10:02:17;99514.16;;;8.22;55.11
27144;BME280;14672;50.250;8.312;2023-03-04T10:04:53;99519.81;;;8.22;55.21
27144;BME280;14672;50.250;8.312;2023-03-04T10:07:32;99514.50;;;8.24;54.83
27144;BME280;14672;50.250;8.312;2023-03-04T10:10:29;99517.31;;;8.28;54.75
27144;BME280;14672;50.250;8.312;2023-03-04T10:12:59;99514.00;;;8.33;54.24
27144;BME280;14672;50.250;8.312;2023-03-04T10:15:44;99516.03;;;8.32;54.39
27144;BME280;14672;50.250;8.312;2023-03-04T10:18:29;99516.56;;;8.24;54.45
27144;BME280;14672;50.250;8.312;2023-03-04T10:23:30;99511.56;;;8.35;54.16
27144;BME280;14672;50.250;8.312;2023-03-04T10:25:58;99513.28;;;8.25;54.26
27144;BME280;14672;50.250;8.312;2023-03-04T10:28:28;99513.59;;;8.34;54.19
27144;BME280;14672;50.250;8.312;2023-03-04T10:31:19;99513.94;;;8.40;53.86
27144;BME280;14672;50.250;8.312;2023-03-04T10:33:48;99511.50;;;8.38;53.84
27144;BME280;14672;50.250;8.312;2023-03-04T10:41:52;99511.81;;;8.44;53.86
27144;BME280;14672;50.250;8.312;2023-03-04T10:44:18;99505.16;;;8.31;54.08
27144;BME280;14672;50.250;8.312;2023-03-04T10:46:48;99503.06;;;8.35;54.46
27144;BME280;14672;50.250;8.312;2023-03-04T10:49:17;99503.16;;;8.55;53.75
27144;BME280;14672;50.250;8.312;2023-03-04T10:52:14;99501.19;;;8.52;53.87
27144;BME280;14672;50.250;8.312;2023-03-04T10:54:50;99497.16;;;8.49;53.66
27144;BME280;14672;50.250;8.312;2023-03-04T10:57:23;99503.50;;;8.57;53.57
27144;BME280;14672;50.250;8.312;2023-03-04T11:02:48;99493.66;;;8.65;52.94
27144;BME280;14672;50.250;8.312;2023-03-04T11:05:16;99491.56;;;8.69;53.05
27144;BME280;14672;50.250;8.312;2023-03-04T11:07:50;99489.25;;;8.64;53.54
27144;BME280;14672;50.250;8.312;2023-03-04T11:15:23;99493.06;;;8.77;53.48
27144;BME280;14672;50.250;8.312;2023-03-04T11:18:10;99490.97;;;8.81;53.17
27144;BME280;14672;50.250;8.312;2023-03-04T11:20:44;99483.81;;;8.73;53.13
27144;BME280;14672;50.250;8.312;2023-03-04T11:23:55;99483.31;;;8.78;53.00
27144;BME280;14672;50.250;8.312;2023-03-04T11:26:49;99490.28;;;8.73;53.62
27144;BME280;14672;50.250;8.312;2023-03-04T11:29:38;99483.59;;;8.64;54.04
27144;BME280;14672;50.250;8.312;2023-03-04T11:32:19;99479.75;;;8.74;53.12
27144;BME280;14672;50.250;8.312;2023-03-04T11:40:44;99479.81;;;8.93;52.94
27144;BME280;14672;50.250;8.312;2023-03-04T11:43:35;99476.63;;;8.91;53.33
27144;BME280;14672;50.250;8.312;2023-03-04T12:06:39;99450.09;;;9.02;52.35
27144;BME280;14672;50.250;8.312;2023-03-04T12:15:39;99428.66;;;9.01;52.33
27144;BME280;14672;50.250;8.312;2023-03-04T12:22:08;99418.56;;;9.19;52.08
27144;BME280;14672;50.250;8.312;2023-03-04T12:25:07;99419.00;;;9.37;51.48
27144;BME280;14672;50.250;8.312;2023-03-04T12:31:06;99410.84;;;9.39;51.57
27144;BME280;14672;50.250;8.312;2023-03-04T12:36:29;99406.97;;;9.50;51.44
27144;BME280;14672;50.250;8.312;2023-03-04T12:44:53;99405.88;;;9.43;51.34
27144;BME280;14672;50.250;8.312;2023-03-04T12:47:27;99403.09;;;9.60;51.28
27144;BME280;14672;50.250;8.312;2023-03-04T12:55:38;99392.63;;;9.57;51.67
27144;BME280;14672;50.250;8.312;2023-03-04T12:58:11;99389.75;;;9.40;51.75
27144;BME280;14672;50.250;8.312;2023-03-04T13:00:50;99385.22;;;9.63;51.68
27144;BME280;14672;50.250;8.312;2023-03-04T13:06:48;99377.06;;;9.65;51.74
27144;BME280;14672;50.250;8.312;2023-03-04T13:09:51;99376.97;;;9.68;51.55
27144;BME280;14672;50.250;8.312;2023-03-04T13:12:21;99381.25;;;9.76;51.66
27144;BME280;14672;50.250;8.312;2023-03-04T13:18:35;99365.28;;;9.66;51.72
27144;BME280;14672;50.250;8.312;2023-03-04T13:21:27;99368.38;;;9.88;51.72
27144;BME280;14672;50.250;8.312;2023-03-04T13:23:54;99363.44;;;9.92;51.20
27144;BME280;14672;50.250;8.312;2023-03-04T13:26:32;99360.97;;;9.94;51.58
27144;BME280;14672;50.250;8.312;2023-03-04T13:32:10;99351.38;;;9.88;51.56
27144;BME280;14672;50.250;8.312;2023-03-04T13:34:50;99349.94;;;9.80;52.04
27144;BME280;14672;50.250;8.312;2023-03-04T13:37:33;99343.75;;;9.85;51.63
27144;BME280;14672;50.250;8.312;2023-03-04T13:42:52;99334.34;;;9.88;51.51
27144;BME280;14672;50.250;8.312;2023-03-04T13:45:34;99332.91;;;9.96;51.82
27144;BME280;14672;50.250;8.312;2023-03-04T13:48:05;99329.88;;;10.03;51.85
27144;BME280;14672;50.250;8.312;2023-03-04T13:50:37;99338.06;;;10.01;52.28
27144;BME280;14672;50.250;8.312;2023-03-04T13:56:21;99329.88;;;10.03;52.21
27144;BME280;14672;50.250;8.312;2023-03-04T13:59:45;99324.50;;;10.09;52.51
27144;BME280;14672;50.250;8.312;2023-03-04T14:04:32;99317.91;;;10.12;52.24
27144;BME280;14672;50.250;8.312;2023-03-04T14:07:01;99322.34;;;10.13;52.00
27144;BME280;14672;50.250;8.312;2023-03-04T14:09:34;99317.13;;;10.11;52.36
27144;BME280;14672;50.250;8.312;2023-03-04T14:12:11;99322.28;;;10.16;52.24
27144;BME280;14672;50.250;8.312;2023-03-04T14:14:53;99320.31;;;10.13;52.42
27144;BME280;14672;50.250;8.312;2023-03-04T14:17:27;99315.81;;;10.16;51.50
27144;BME280;14672;50.250;8.312;2023-03-04T14:19:54;99311.09;;;10.09;51.52
27144;BME280;14672;50.250;8.312;2023-03-04T14:22:36;99315.88;;;10.12;51.83
27144;BME280;14672;50.250;8.312;2023-03-04T14:25:29;99315.00;;;10.15;51.72
27144;BME280;14672;50.250;8.312;2023-03-04T14:28:12;99316.53;;;10.20;51.64
27144;BME280;14672;50.250;8.312;2023-03-04T14:30:40;99311.09;;;10.09;51.83
27144;BME280;14672;50.250;8.312;2023-03-04T14:33:13;99315.88;;;10.12;51.90
27144;BME280;14672;50.250;8.312;2023-03-04T14:35:53;99308.59;;;10.11;52.47
27144;BME280;14672;50.250;8.312;2023-03-04T14:38:36;99300.53;;;10.10;52.40
27144;BME280;14672;50.250;8.312;2023-03-04T14:41:15;99305.84;;;10.08;52.37
27144;BME280;14672;50.250;8.312;2023-03-04T14:44:25;99298.03;;;10.12;52.51
27144;BME280;14672;50.250;8.312;2023-03-04T14:46:59;99294.69;;;10.01;52.98
27144;BME280;14672;50.250;8.312;2023-03-04T14:49:26;99289.81;;;10.01;53.52
27144;BME280;14672;50.250;8.312;2023-03-04T14:51:54;99286.88;;;9.88;53.30
27144;BME280;14672;50.250;8.312;2023-03-04T14:56:53;99279.69;;;10.00;53.50
27144;BME280;14672;50.250;8.312;2023-03-04T14:59:32;99286.53;;;10.03;53.43
27144;BME280;14672;50.250;8.312;2023-03-04T15:04:49;99278.13;;;9.99;53.22
27144;BME280;14672;50.250;8.312;2023-03-04T15:07:20;99286.72;;;9.79;54.34